sensor_id;sensor_type;location;lat;lon;timestamp;temperature;humidity
6581;DHT22;3324;50.796;7.228;2023-05-20T00:01:02;14.40;99.90
6581;DHT22;3324;50.796;7.228;2023-05-20T00:03:28;14.40;99.90
6581;DHT22;3324;50.796;7.228;2023-05-20T00:05:54;14.30;99.90
6581;DHT22;3324;50.796;7.228;2023-05-20T00:08:20;14.30;99.90
6581;DHT22;3324;50.796;7.228;2023-05-20T00:10:45;14.30;99.90
6581;DHT22;3324;50.796;7.228;2023-05-20T00:13:11;14.20;99.90
6581;DHT22;3324;50.796;7.228;2023-05-20T00:15:37;14.10;99.90
6581;DHT22;3324;50.796;7.228;2023-05-20T00:18:02;14.10;99.90
6581;DHT22;3324;50.796;7.228;2023-05-20T00:20:28;14.10;99.90
6581;DHT22;3324;50.796;7.228;2023-05-20T00:22:54;14.20;99.90
6581;DHT22;3324;50.796;7.228;2023-05-20T00:25:20;14.10;99.90
6581;DHT22;3324;50.796;7.228;2023-05-20T00:27:46;14.10;99.90
6581;DHT22;3324;50.796;7.228;2023-05-20T00:30:12;14.00;99.90
6581;DHT22;3324;50.796;7.228;2023-05-20T00:32:37;13.90;99.90
6581;DHT22;3324;50.796;7.228;2023-05-20T00:35:03;13.80;99.90
6581;DHT22;3324;50.796;7.228;2023-05-20T00:37:29;13.90;99.90
6581;DHT22;3324;50.796;7.228;2023-05-20T00:39:55;13.80;99.90
6581;DHT22;3324;50.796;7.228;2023-05-20T00:42:24;13.80;99.90
6581;DHT22;3324;50.796;7.228;2023-05-20T00:44:51;13.80;99.90
6581;DHT22;3324;50.796;7.228;2023-05-20T00:47:18;13.80;99.90
6581;DHT22;3324;50.796;7.228;2023-05-20T00:49:45;13.70;99.90
6581;DHT22;3324;50.796;7.228;2023-05-20T00:52:11;13.70;99.90
6581;DHT22;3324;50.796;7.228;2023-05-20T00:54:38;13.80;99.90
6581;DHT22;3324;50.796;7.228;2023-05-20T00:57:04;13.70;99.90
6581;DHT22;3324;50.796;7.228;2023-05-20T00:59:35;13.70;99.90
6581;DHT22;3324;50.796;7.228;2023-05-20T01:02:02;13.60;99.90
6581;DHT22;3324;50.796;7.228;2023-05-20T01:04:28;13.60;99.90
6581;DHT22;3324;50.796;7.228;2023-05-20T01:06:54;13.50;99.90
6581;DHT22;3324;50.796;7.228;2023-05-20T01:09:20;13.50;99.90
6581;DHT22;3324;50.796;7.228;2023-05-20T01:11:58;13.50;99.90
6581;DHT22;3324;50.796;7.228;2023-05-20T01:14:26;13.50;99.90
6581;DHT22;3324;50.796;7.228;2023-05-20T01:16:55;13.50;99.90
6581;DHT22;3324;50.796;7.228;2023-05-20T01:19:37;13.40;99.90
6581;DHT22;3324;50.796;7.228;2023-05-20T01:22:07;13.40;99.90
6581;DHT22;3324;50.796;7.228;2023-05-20T01:24:40;13.30;99.90
6581;DHT22;3324;50.796;7.228;2023-05-20T01:27:07;13.30;99.90
6581;DHT22;3324;50.796;7.228;2023-05-20T01:29:38;13.20;99.90
6581;DHT22;3324;50.796;7.228;2023-05-20T01:32:11;13.20;99.90
6581;DHT22;3324;50.796;7.228;2023-05-20T01:34:40;13.20;99.90
6581;DHT22;3324;50.796;7.228;2023-05-20T01:37:07;13.30;99.90
6581;DHT22;3324;50.796;7.228;2023-05-20T01:39:35;13.30;99.90
6581;DHT22;3324;50.796;7.228;2023-05-20T01:42:03;13.20;99.90
6581;DHT22;3324;50.796;7.228;2023-05-20T01:44:29;13.20;99.90
6581;DHT22;3324;50.796;7.228;2023-05-20T01:46:55;13.20;99.90
6581;DHT22;3324;50.796;7.228;2023-05-20T01:49:20;13.20;99.90
6581;DHT22;3324;50.796;7.228;2023-05-20T01:51:46;13.30;99.90
6581;DHT22;3324;50.796;7.228;2023-05-20T01:54:12;13.30;99.90
6581;DHT22;3324;50.796;7.228;2023-05-20T01:56:37;13.20;99.90
6581;DHT22;3324;50.796;7.228;2023-05-20T01:59:03;13.10;99.90
6581;DHT22;3324;50.796;7.228;2023-05-20T02:01:28;13.10;99.90
6581;DHT22;3324;50.796;7.228;2023-05-20T02:03:54;13.10;99.90
6581;DHT22;3324;50.796;7.228;2023-05-20T02:06:20;13.00;99.90
6581;DHT22;3324;50.796;7.228;2023-05-20T02:08:45;13.00;99.90
6581;DHT22;3324;50.796;7.228;2023-05-20T02:11:11;12.90;99.90
6581;DHT22;3324;50.796;7.228;2023-05-20T02:13:37;12.80;99.90
6581;DHT22;3324;50.796;7.228;2023-05-20T02:16:03;12.70;99.90
6581;DHT22;3324;50.796;7.228;2023-05-20T02:18:28;12.60;99.90
6581;DHT22;3324;50.796;7.228;2023-05-20T02:20:54;12.60;99.90
6581;DHT22;3324;50.796;7.228;2023-05-20T02:23:19;12.50;99.90
6581;DHT22;3324;50.796;7.228;2023-05-20T02:25:45;12.60;99.90
6581;DHT22;3324;50.796;7.228;2023-05-20T02:28:11;12.50;99.90
6581;DHT22;3324;50.796;7.228;2023-05-20T02:30:37;12.40;99.90
6581;DHT22;3324;50.796;7.228;2023-05-20T02:33:03;12.30;99.90
6581;DHT22;3324;50.796;7.228;2023-05-20T02:35:28;12.30;99.90
6581;DHT22;3324;50.796;7.228;2023-05-20T02:37:54;12.20;99.90
6581;DHT22;3324;50.796;7.228;2023-05-20T02:40:20;12.20;99.90
6581;DHT22;3324;50.796;7.228;2023-05-20T02:42:46;12.00;99.90
6581;DHT22;3324;50.796;7.228;2023-05-20T02:45:11;12.10;99.90
6581;DHT22;3324;50.796;7.228;2023-05-20T02:47:37;12.00;99.90
6581;DHT22;3324;50.796;7.228;2023-05-20T02:50:02;11.90;99.90
6581;DHT22;3324;50.796;7.228;2023-05-20T02:52:28;11.90;99.90
6581;DHT22;3324;50.796;7.228;2023-05-20T02:54:54;11.80;99.90
6581;DHT22;3324;50.796;7.228;2023-05-20T02:57:20;11.80;99.90
6581;DHT22;3324;50.796;7.228;2023-05-20T02:59:46;11.80;99.90
6581;DHT22;3324;50.796;7.228;2023-05-20T03:02:12;11.70;99.90
6581;DHT22;3324;50.796;7.228;2023-05-20T03:04:37;11.70;99.90
6581;DHT22;3324;50.796;7.228;2023-05-20T03:07:06;11.60;99.90
6581;DHT22;3324;50.796;7.228;2023-05-20T03:09:34;11.60;99.90
6581;DHT22;3324;50.796;7.228;2023-05-20T03:12:00;11.60;99.90
6581;DHT22;3324;50.796;7.228;2023-05-20T03:14:25;11.60;99.90
6581;DHT22;3324;50.796;7.228;2023-05-20T03:16:52;11.60;99.90
6581;DHT22;3324;50.796;7.228;2023-05-20T03:19:19;11.60;99.90
6581;DHT22;3324;50.796;7.228;2023-05-20T03:21:45;11.50;99.90
6581;DHT22;3324;50.796;7.228;2023-05-20T03:24:11;11.50;99.90
6581;DHT22;3324;50.796;7.228;2023-05-20T03:26:36;11.40;99.90
6581;DHT22;3324;50.796;7.228;2023-05-20T03:29:08;11.40;99.90
6581;DHT22;3324;50.796;7.228;2023-05-20T03:31:34;11.40;99.90
6581;DHT22;3324;50.796;7.228;2023-05-20T03:33:59;11.30;99.90
6581;DHT22;3324;50.796;7.228;2023-05-20T03:36:25;11.40;99.90
6581;DHT22;3324;50.796;7.228;2023-05-20T03:38:51;11.40;99.90
6581;DHT22;3324;50.796;7.228;2023-05-20T03:41:16;11.50;99.90
6581;DHT22;3324;50.796;7.228;2023-05-20T03:43:42;11.40;99.90
6581;DHT22;3324;50.796;7.228;2023-05-20T03:46:07;11.50;99.90
6581;DHT22;3324;50.796;7.228;2023-05-20T03:48:34;11.50;99.90
6581;DHT22;3324;50.796;7.228;2023-05-20T03:51:00;11.40;99.90
6581;DHT22;3324;50.796;7.228;2023-05-20T03:53:26;11.30;99.90
6581;DHT22;3324;50.796;7.228;2023-05-20T03:55:52;11.30;99.90
6581;DHT22;3324;50.796;7.228;2023-05-20T03:58:17;11.30;99.90
6581;DHT22;3324;50.796;7.228;2023-05-20T04:00:44;11.20;99.90
6581;DHT22;3324;50.796;7.228;2023-05-20T04:03:11;11.20;99.90
6581;DHT22;3324;50.796;7.228;2023-05-20T04:05:37;11.20;99.90
6581;DHT22;3324;50.796;7.228;2023-05-20T04:08:03;11.20;99.90
6581;DHT22;3324;50.796;7.228;2023-05-20T04:10:29;11.20;99.90
6581;DHT22;3324;50.796;7.228;2023-05-20T04:12:58;11.30;99.90
6581;DHT22;3324;50.796;7.228;2023-05-20T04:15:23;11.20;99.90
6581;DHT22;3324;50.796;7.228;2023-05-20T04:17:50;11.20;99.90
6581;DHT22;3324;50.796;7.228;2023-05-20T04:20:17;11.20;99.90
6581;DHT22;3324;50.796;7.228;2023-05-20T04:22:43;11.20;99.90
6581;DHT22;3324;50.796;7.228;2023-05-20T04:25:11;11.20;99.90
6581;DHT22;3324;50.796;7.228;2023-05-20T04:27:36;11.20;99.90
6581;DHT22;3324;50.796;7.228;2023-05-20T04:30:03;11.20;99.90
6581;DHT22;3324;50.796;7.228;2023-05-20T04:32:29;11.20;99.90
6581;DHT22;3324;50.796;7.228;2023-05-20T04:34:54;11.20;99.90
6581;DHT22;3324;50.796;7.228;2023-05-20T04:37:24;11.20;99.90
6581;DHT22;3324;50.796;7.228;2023-05-20T04:39:49;11.30;99.90
6581;DHT22;3324;50.796;7.228;2023-05-20T04:42:15;11.30;99.90
6581;DHT22;3324;50.796;7.228;2023-05-20T04:44:46;11.30;99.90
6581;DHT22;3324;50.796;7.228;2023-05-20T04:47:12;11.30;99.90
6581;DHT22;3324;50.796;7.228;2023-05-20T04:49:38;11.30;99.90
6581;DHT22;3324;50.796;7.228;2023-05-20T04:52:04;11.30;99.90
6581;DHT22;3324;50.796;7.228;2023-05-20T04:54:31;11.30;99.90
6581;DHT22;3324;50.796;7.228;2023-05-20T04:56:57;11.30;99.90
6581;DHT22;3324;50.796;7.228;2023-05-20T04:59:23;11.30;99.90
6581;DHT22;3324;50.796;7.228;2023-05-20T05:01:48;11.30;99.90
6581;DHT22;3324;50.796;7.228;2023-05-20T05:04:14;11.40;99.90
6581;DHT22;3324;50.796;7.228;2023-05-20T05:06:40;11.40;99.90
6581;DHT22;3324;50.796;7.228;2023-05-20T05:09:05;11.50;99.90
6581;DHT22;3324;50.796;7.228;2023-05-20T05:11:32;11.50;99.90
6581;DHT22;3324;50.796;7.228;2023-05-20T05:13:58;11.60;99.90
6581;DHT22;3324;50.796;7.228;2023-05-20T05:16:24;11.60;99.90
6581;DHT22;3324;50.796;7.228;2023-05-20T05:18:49;11.70;99.90
6581;DHT22;3324;50.796;7.228;2023-05-20T05:21:15;11.80;99.90
6581;DHT22;3324;50.796;7.228;2023-05-20T05:23:41;11.90;99.90
6581;DHT22;3324;50.796;7.228;2023-05-20T05:26:09;11.90;99.90
6581;DHT22;3324;50.796;7.228;2023-05-20T05:28:35;11.90;99.90
6581;DHT22;3324;50.796;7.228;2023-05-20T05:31:00;12.00;99.90
6581;DHT22;3324;50.796;7.228;2023-05-20T05:33:26;12.00;99.90
6581;DHT22;3324;50.796;7.228;2023-05-20T05:35:52;12.00;99.90
6581;DHT22;3324;50.796;7.228;2023-05-20T05:38:18;12.10;99.90
6581;DHT22;3324;50.796;7.228;2023-05-20T05:40:44;12.10;99.90
6581;DHT22;3324;50.796;7.228;2023-05-20T05:43:09;12.10;99.90
6581;DHT22;3324;50.796;7.228;2023-05-20T05:45:35;12.20;99.90
6581;DHT22;3324;50.796;7.228;2023-05-20T05:48:01;12.20;99.90
6581;DHT22;3324;50.796;7.228;2023-05-20T05:50:26;12.30;99.90
6581;DHT22;3324;50.796;7.228;2023-05-20T05:52:52;12.30;99.90
6581;DHT22;3324;50.796;7.228;2023-05-20T05:55:18;12.30;99.90
6581;DHT22;3324;50.796;7.228;2023-05-20T05:57:43;12.40;99.90
6581;DHT22;3324;50.796;7.228;2023-05-20T06:00:09;12.50;99.90
6581;DHT22;3324;50.796;7.228;2023-05-20T06:02:35;12.60;99.90
6581;DHT22;3324;50.796;7.228;2023-05-20T06:05:04;12.60;99.90
6581;DHT22;3324;50.796;7.228;2023-05-20T06:07:29;12.70;99.90
6581;DHT22;3324;50.796;7.228;2023-05-20T06:09:55;12.70;99.90
6581;DHT22;3324;50.796;7.228;2023-05-20T06:12:21;12.80;99.90
6581;DHT22;3324;50.796;7.228;2023-05-20T06:14:47;12.90;99.90
6581;DHT22;3324;50.796;7.228;2023-05-20T06:17:12;12.90;99.90
6581;DHT22;3324;50.796;7.228;2023-05-20T06:19:38;13.00;99.90
6581;DHT22;3324;50.796;7.228;2023-05-20T06:22:04;13.10;99.90
6581;DHT22;3324;50.796;7.228;2023-05-20T06:24:29;13.20;99.90
6581;DHT22;3324;50.796;7.228;2023-05-20T06:26:55;13.20;99.90
6581;DHT22;3324;50.796;7.228;2023-05-20T06:29:21;13.30;99.90
6581;DHT22;3324;50.796;7.228;2023-05-20T06:31:47;13.30;99.90
6581;DHT22;3324;50.796;7.228;2023-05-20T06:34:13;13.40;99.90
6581;DHT22;3324;50.796;7.228;2023-05-20T06:36:38;13.40;99.90
6581;DHT22;3324;50.796;7.228;2023-05-20T06:39:04;13.50;99.90
6581;DHT22;3324;50.796;7.228;2023-05-20T06:41:32;13.60;99.90
6581;DHT22;3324;50.796;7.228;2023-05-20T06:43:57;13.70;99.90
6581;DHT22;3324;50.796;7.228;2023-05-20T06:46:23;13.90;99.90
6581;DHT22;3324;50.796;7.228;2023-05-20T06:48:49;14.00;99.90
6581;DHT22;3324;50.796;7.228;2023-05-20T06:51:14;14.10;99.90
6581;DHT22;3324;50.796;7.228;2023-05-20T06:53:40;14.30;99.90
6581;DHT22;3324;50.796;7.228;2023-05-20T06:56:06;14.50;99.90
6581;DHT22;3324;50.796;7.228;2023-05-20T06:58:32;14.50;99.90
6581;DHT22;3324;50.796;7.228;2023-05-20T07:00:57;14.60;99.90
6581;DHT22;3324;50.796;7.228;2023-05-20T07:03:23;14.60;99.90
6581;DHT22;3324;50.796;7.228;2023-05-20T07:05:49;14.60;99.90
6581;DHT22;3324;50.796;7.228;2023-05-20T07:08:15;14.70;99.90
6581;DHT22;3324;50.796;7.228;2023-05-20T07:10:41;14.70;99.90
6581;DHT22;3324;50.796;7.228;2023-05-20T07:13:07;14.80;99.90
6581;DHT22;3324;50.796;7.228;2023-05-20T07:15:33;14.80;99.90
6581;DHT22;3324;50.796;7.228;2023-05-20T07:17:58;14.90;99.90
6581;DHT22;3324;50.796;7.228;2023-05-20T07:20:24;14.90;99.90
6581;DHT22;3324;50.796;7.228;2023-05-20T07:22:49;15.10;99.90
6581;DHT22;3324;50.796;7.228;2023-05-20T07:25:15;15.20;99.90
6581;DHT22;3324;50.796;7.228;2023-05-20T07:27:41;15.30;99.90
6581;DHT22;3324;50.796;7.228;2023-05-20T07:30:07;15.30;99.90
6581;DHT22;3324;50.796;7.228;2023-05-20T07:32:34;15.30;99.90
6581;DHT22;3324;50.796;7.228;2023-05-20T07:34:59;15.20;99.90
6581;DHT22;3324;50.796;7.228;2023-05-20T07:37:25;15.30;99.90
6581;DHT22;3324;50.796;7.228;2023-05-20T07:39:51;15.40;99.90
6581;DHT22;3324;50.796;7.228;2023-05-20T07:42:17;15.40;99.90
6581;DHT22;3324;50.796;7.228;2023-05-20T07:44:42;15.40;99.90
6581;DHT22;3324;50.796;7.228;2023-05-20T07:47:08;15.50;99.90
6581;DHT22;3324;50.796;7.228;2023-05-20T07:49:34;15.40;99.90
6581;DHT22;3324;50.796;7.228;2023-05-20T07:51:59;15.50;99.90
6581;DHT22;3324;50.796;7.228;2023-05-20T07:54:25;15.70;99.90
6581;DHT22;3324;50.796;7.228;2023-05-20T07:56:52;15.70;99.90
6581;DHT22;3324;50.796;7.228;2023-05-20T07:59:17;15.80;99.90
6581;DHT22;3324;50.796;7.228;2023-05-20T08:01:43;15.80;99.90
6581;DHT22;3324;50.796;7.228;2023-05-20T08:04:09;15.90;99.90
6581;DHT22;3324;50.796;7.228;2023-05-20T08:06:34;16.10;99.90
6581;DHT22;3324;50.796;7.228;2023-05-20T08:09:01;16.20;99.90
6581;DHT22;3324;50.796;7.228;2023-05-20T08:11:27;16.30;99.90
6581;DHT22;3324;50.796;7.228;2023-05-20T08:13:53;16.50;99.90
6581;DHT22;3324;50.796;7.228;2023-05-20T08:16:20;16.70;99.90
6581;DHT22;3324;50.796;7.228;2023-05-20T08:18:46;16.90;99.90
6581;DHT22;3324;50.796;7.228;2023-05-20T08:21:11;17.10;99.90
6581;DHT22;3324;50.796;7.228;2023-05-20T08:23:38;17.30;99.90
6581;DHT22;3324;50.796;7.228;2023-05-20T08:26:03;17.50;99.90
6581;DHT22;3324;50.796;7.228;2023-05-20T08:28:29;17.70;99.90
6581;DHT22;3324;50.796;7.228;2023-05-20T08:30:56;17.90;99.90
6581;DHT22;3324;50.796;7.228;2023-05-20T08:33:22;18.10;99.90
6581;DHT22;3324;50.796;7.228;2023-05-20T08:35:48;18.20;99.90
6581;DHT22;3324;50.796;7.228;2023-05-20T08:38:14;18.30;99.90
6581;DHT22;3324;50.796;7.228;2023-05-20T08:40:40;18.30;99.90
6581;DHT22;3324;50.796;7.228;2023-05-20T08:43:05;18.50;99.90
6581;DHT22;3324;50.796;7.228;2023-05-20T08:45:32;18.60;99.90
6581;DHT22;3324;50.796;7.228;2023-05-20T08:47:59;18.70;99.90
6581;DHT22;3324;50.796;7.228;2023-05-20T08:50:25;18.70;99.90
6581;DHT22;3324;50.796;7.228;2023-05-20T08:52:51;18.70;99.90
6581;DHT22;3324;50.796;7.228;2023-05-20T08:55:19;18.70;99.90
6581;DHT22;3324;50.796;7.228;2023-05-20T08:57:50;18.70;99.90
6581;DHT22;3324;50.796;7.228;2023-05-20T09:00:16;18.70;99.90
6581;DHT22;3324;50.796;7.228;2023-05-20T09:02:44;18.70;99.90
6581;DHT22;3324;50.796;7.228;2023-05-20T09:05:10;18.70;99.90
6581;DHT22;3324;50.796;7.228;2023-05-20T09:07:36;18.80;99.90
6581;DHT22;3324;50.796;7.228;2023-05-20T09:10:02;18.80;99.90
6581;DHT22;3324;50.796;7.228;2023-05-20T09:12:28;18.80;99.90
6581;DHT22;3324;50.796;7.228;2023-05-20T09:14:54;18.90;99.90
6581;DHT22;3324;50.796;7.228;2023-05-20T09:17:21;18.90;99.90
6581;DHT22;3324;50.796;7.228;2023-05-20T09:19:52;19.00;99.90
6581;DHT22;3324;50.796;7.228;2023-05-20T09:22:27;19.00;99.90
6581;DHT22;3324;50.796;7.228;2023-05-20T09:24:54;18.90;99.90
6581;DHT22;3324;50.796;7.228;2023-05-20T09:27:20;18.90;99.90
6581;DHT22;3324;50.796;7.228;2023-05-20T09:29:47;18.90;99.90
6581;DHT22;3324;50.796;7.228;2023-05-20T09:32:13;19.00;99.90
6581;DHT22;3324;50.796;7.228;2023-05-20T09:34:40;19.00;99.90
6581;DHT22;3324;50.796;7.228;2023-05-20T09:37:10;18.90;99.90
6581;DHT22;3324;50.796;7.228;2023-05-20T09:40:05;18.90;99.90
6581;DHT22;3324;50.796;7.228;2023-05-20T09:45:17;18.90;99.90
6581;DHT22;3324;50.796;7.228;2023-05-20T09:47:44;19.00;99.90
6581;DHT22;3324;50.796;7.228;2023-05-20T09:50:10;19.00;99.90
6581;DHT22;3324;50.796;7.228;2023-05-20T09:52:38;19.00;99.90
6581;DHT22;3324;50.796;7.228;2023-05-20T09:55:07;18.90;99.90
6581;DHT22;3324;50.796;7.228;2023-05-20T09:57:35;18.90;99.90
6581;DHT22;3324;50.796;7.228;2023-05-20T10:00:05;18.80;99.90
6581;DHT22;3324;50.796;7.228;2023-05-20T10:02:33;18.80;99.90
6581;DHT22;3324;50.796;7.228;2023-05-20T10:05:04;18.80;99.90
6581;DHT22;3324;50.796;7.228;2023-05-20T10:07:50;18.80;99.90
6581;DHT22;3324;50.796;7.228;2023-05-20T10:10:47;18.60;99.90
6581;DHT22;3324;50.796;7.228;2023-05-20T10:21:32;18.60;99.90
6581;DHT22;3324;50.796;7.228;2023-05-20T10:24:10;18.60;99.90
6581;DHT22;3324;50.796;7.228;2023-05-20T10:26:40;18.60;99.90
6581;DHT22;3324;50.796;7.228;2023-05-20T10:29:19;18.60;99.90
6581;DHT22;3324;50.796;7.228;2023-05-20T10:31:48;18.60;99.90
6581;DHT22;3324;50.796;7.228;2023-05-20T10:34:15;18.70;99.90
6581;DHT22;3324;50.796;7.228;2023-05-20T10:37:05;18.80;99.90
6581;DHT22;3324;50.796;7.228;2023-05-20T10:39:31;18.80;99.90
6581;DHT22;3324;50.796;7.228;2023-05-20T10:42:07;18.80;99.90
6581;DHT22;3324;50.796;7.228;2023-05-20T10:44:46;18.90;99.90
6581;DHT22;3324;50.796;7.228;2023-05-20T10:47:12;18.90;99.90
6581;DHT22;3324;50.796;7.228;2023-05-20T10:49:45;19.00;99.90
6581;DHT22;3324;50.796;7.228;2023-05-20T10:52:12;19.10;99.90
6581;DHT22;3324;50.796;7.228;2023-05-20T10:57:20;19.20;99.90
6581;DHT22;3324;50.796;7.228;2023-05-20T10:59:46;19.20;99.90
6581;DHT22;3324;50.796;7.228;2023-05-20T11:02:15;19.20;99.90
6581;DHT22;3324;50.796;7.228;2023-05-20T11:04:44;19.30;99.90
6581;DHT22;3324;50.796;7.228;2023-05-20T11:07:11;19.30;99.90
6581;DHT22;3324;50.796;7.228;2023-05-20T11:09:37;19.20;99.90
6581;DHT22;3324;50.796;7.228;2023-05-20T11:12:03;19.10;99.90
6581;DHT22;3324;50.796;7.228;2023-05-20T11:14:29;19.00;99.90
6581;DHT22;3324;50.796;7.228;2023-05-20T11:16:58;19.00;99.90
6581;DHT22;3324;50.796;7.228;2023-05-20T11:19:27;19.00;99.90
6581;DHT22;3324;50.796;7.228;2023-05-20T11:21:53;19.00;99.90
6581;DHT22;3324;50.796;7.228;2023-05-20T11:24:26;19.00;99.90
6581;DHT22;3324;50.796;7.228;2023-05-20T11:26:52;19.00;99.90
6581;DHT22;3324;50.796;7.228;2023-05-20T11:29:19;19.10;99.90
6581;DHT22;3324;50.796;7.228;2023-05-20T11:31:49;19.10;99.90
6581;DHT22;3324;50.796;7.228;2023-05-20T11:34:21;19.00;99.90
6581;DHT22;3324;50.796;7.228;2023-05-20T11:36:47;19.00;99.90
6581;DHT22;3324;50.796;7.228;2023-05-20T11:39:15;18.90;99.90
6581;DHT22;3324;50.796;7.228;2023-05-20T11:41:41;19.00;99.90
6581;DHT22;3324;50.796;7.228;2023-05-20T11:44:11;19.00;99.90
6581;DHT22;3324;50.796;7.228;2023-05-20T11:46:41;19.10;99.90
6581;DHT22;3324;50.796;7.228;2023-05-20T11:49:07;19.30;99.90
6581;DHT22;3324;50.796;7.228;2023-05-20T11:51:33;19.40;99.90
6581;DHT22;3324;50.796;7.228;2023-05-20T11:54:03;19.40;99.90
6581;DHT22;3324;50.796;7.228;2023-05-20T11:56:29;19.40;99.90
6581;DHT22;3324;50.796;7.228;2023-05-20T11:58:59;19.30;99.90
6581;DHT22;3324;50.796;7.228;2023-05-20T12:01:25;19.40;99.90
6581;DHT22;3324;50.796;7.228;2023-05-20T12:03:52;19.50;99.90
6581;DHT22;3324;50.796;7.228;2023-05-20T12:06:18;19.60;99.90
6581;DHT22;3324;50.796;7.228;2023-05-20T12:08:44;19.60;99.90
6581;DHT22;3324;50.796;7.228;2023-05-20T12:11:09;19.70;99.90
6581;DHT22;3324;50.796;7.228;2023-05-20T12:13:35;19.80;99.90
6581;DHT22;3324;50.796;7.228;2023-05-20T12:16:01;19.80;99.90
6581;DHT22;3324;50.796;7.228;2023-05-20T12:18:26;19.90;99.90
6581;DHT22;3324;50.796;7.228;2023-05-20T12:20:52;19.90;99.90
6581;DHT22;3324;50.796;7.228;2023-05-20T12:23:18;20.10;99.90
6581;DHT22;3324;50.796;7.228;2023-05-20T12:25:43;20.00;99.90
6581;DHT22;3324;50.796;7.228;2023-05-20T12:28:11;19.90;99.90
6581;DHT22;3324;50.796;7.228;2023-05-20T12:30:37;19.90;99.90
6581;DHT22;3324;50.796;7.228;2023-05-20T12:33:03;19.90;99.90
6581;DHT22;3324;50.796;7.228;2023-05-20T12:35:39;19.90;99.90
6581;DHT22;3324;50.796;7.228;2023-05-20T12:38:06;19.90;99.90
6581;DHT22;3324;50.796;7.228;2023-05-20T12:40:32;19.90;99.90
6581;DHT22;3324;50.796;7.228;2023-05-20T12:42:59;19.70;99.90
6581;DHT22;3324;50.796;7.228;2023-05-20T12:45:25;19.80;99.90
6581;DHT22;3324;50.796;7.228;2023-05-20T12:47:51;19.80;99.90
6581;DHT22;3324;50.796;7.228;2023-05-20T12:50:17;19.70;99.90
6581;DHT22;3324;50.796;7.228;2023-05-20T12:52:42;19.60;99.90
6581;DHT22;3324;50.796;7.228;2023-05-20T12:55:08;19.60;99.90
6581;DHT22;3324;50.796;7.228;2023-05-20T12:57:44;19.60;99.90
6581;DHT22;3324;50.796;7.228;2023-05-20T13:00:11;19.80;99.90
6581;DHT22;3324;50.796;7.228;2023-05-20T13:02:37;19.80;99.90
6581;DHT22;3324;50.796;7.228;2023-05-20T13:05:04;19.90;99.90
6581;DHT22;3324;50.796;7.228;2023-05-20T13:07:30;20.10;99.90
6581;DHT22;3324;50.796;7.228;2023-05-20T13:09:56;20.40;99.90
6581;DHT22;3324;50.796;7.228;2023-05-20T13:12:22;20.40;99.90
6581;DHT22;3324;50.796;7.228;2023-05-20T13:14:47;20.60;99.90
6581;DHT22;3324;50.796;7.228;2023-05-20T13:17:13;20.70;99.90
6581;DHT22;3324;50.796;7.228;2023-05-20T13:19:39;20.80;99.90
6581;DHT22;3324;50.796;7.228;2023-05-20T13:22:04;20.70;99.90
6581;DHT22;3324;50.796;7.228;2023-05-20T13:24:32;20.70;99.90
6581;DHT22;3324;50.796;7.228;2023-05-20T13:26:58;20.70;99.90
6581;DHT22;3324;50.796;7.228;2023-05-20T13:29:28;20.80;99.90
6581;DHT22;3324;50.796;7.228;2023-05-20T13:31:53;20.60;99.90
6581;DHT22;3324;50.796;7.228;2023-05-20T13:34:19;20.50;99.90
6581;DHT22;3324;50.796;7.228;2023-05-20T13:36:45;20.40;99.90
6581;DHT22;3324;50.796;7.228;2023-05-20T13:39:13;20.10;99.90
6581;DHT22;3324;50.796;7.228;2023-05-20T13:41:39;20.20;99.90
6581;DHT22;3324;50.796;7.228;2023-05-20T13:44:05;20.10;99.90
6581;DHT22;3324;50.796;7.228;2023-05-20T13:46:31;19.90;99.90
6581;DHT22;3324;50.796;7.228;2023-05-20T13:48:56;19.90;99.90
6581;DHT22;3324;50.796;7.228;2023-05-20T13:51:22;20.00;99.90
6581;DHT22;3324;50.796;7.228;2023-05-20T13:53:48;20.10;99.90
6581;DHT22;3324;50.796;7.228;2023-05-20T13:56:13;20.30;99.90
6581;DHT22;3324;50.796;7.228;2023-05-20T13:58:39;20.50;99.90
6581;DHT22;3324;50.796;7.228;2023-05-20T14:01:06;20.60;99.90
6581;DHT22;3324;50.796;7.228;2023-05-20T14:03:32;20.50;99.90
6581;DHT22;3324;50.796;7.228;2023-05-20T14:05:59;20.40;99.90
6581;DHT22;3324;50.796;7.228;2023-05-20T14:08:25;20.40;99.90
6581;DHT22;3324;50.796;7.228;2023-05-20T14:10:50;20.30;99.90
6581;DHT22;3324;50.796;7.228;2023-05-20T14:13:21;20.30;99.90
6581;DHT22;3324;50.796;7.228;2023-05-20T14:15:47;20.40;99.90
6581;DHT22;3324;50.796;7.228;2023-05-20T14:18:13;20.40;99.90
6581;DHT22;3324;50.796;7.228;2023-05-20T14:20:39;20.40;99.90
6581;DHT22;3324;50.796;7.228;2023-05-20T14:23:04;20.30;99.90
6581;DHT22;3324;50.796;7.228;2023-05-20T14:25:30;20.20;99.90
6581;DHT22;3324;50.796;7.228;2023-05-20T14:27:56;20.20;99.90
6581;DHT22;3324;50.796;7.228;2023-05-20T14:30:21;20.00;99.90
6581;DHT22;3324;50.796;7.228;2023-05-20T14:32:47;19.90;99.90
6581;DHT22;3324;50.796;7.228;2023-05-20T14:35:12;19.90;99.90
6581;DHT22;3324;50.796;7.228;2023-05-20T14:37:38;19.90;99.90
6581;DHT22;3324;50.796;7.228;2023-05-20T14:40:04;19.80;99.90
6581;DHT22;3324;50.796;7.228;2023-05-20T14:42:32;19.80;99.90
6581;DHT22;3324;50.796;7.228;2023-05-20T14:44:58;19.70;99.90
6581;DHT22;3324;50.796;7.228;2023-05-20T14:47:23;19.60;99.90
6581;DHT22;3324;50.796;7.228;2023-05-20T14:49:50;19.70;99.90
6581;DHT22;3324;50.796;7.228;2023-05-20T14:52:16;19.70;99.90
6581;DHT22;3324;50.796;7.228;2023-05-20T14:54:42;19.70;99.90
6581;DHT22;3324;50.796;7.228;2023-05-20T14:57:07;19.70;99.90
6581;DHT22;3324;50.796;7.228;2023-05-20T14:59:33;19.60;99.90
6581;DHT22;3324;50.796;7.228;2023-05-20T15:01:59;19.50;99.90
6581;DHT22;3324;50.796;7.228;2023-05-20T15:04:25;19.40;99.90
6581;DHT22;3324;50.796;7.228;2023-05-20T15:06:51;19.40;99.90
6581;DHT22;3324;50.796;7.228;2023-05-20T15:09:16;19.40;99.90
6581;DHT22;3324;50.796;7.228;2023-05-20T15:11:42;19.30;99.90
6581;DHT22;3324;50.796;7.228;2023-05-20T15:14:08;19.40;99.90
6581;DHT22;3324;50.796;7.228;2023-05-20T15:16:34;19.40;99.90
6581;DHT22;3324;50.796;7.228;2023-05-20T15:19:00;19.30;99.90
6581;DHT22;3324;50.796;7.228;2023-05-20T15:21:25;19.30;99.90
6581;DHT22;3324;50.796;7.228;2023-05-20T15:23:51;19.30;99.90
6581;DHT22;3324;50.796;7.228;2023-05-20T15:26:17;19.30;99.90
6581;DHT22;3324;50.796;7.228;2023-05-20T15:28:42;19.30;99.90
6581;DHT22;3324;50.796;7.228;2023-05-20T15:31:08;19.30;99.90
6581;DHT22;3324;50.796;7.228;2023-05-20T15:33:34;19.30;99.90
6581;DHT22;3324;50.796;7.228;2023-05-20T15:36:00;19.30;99.90
6581;DHT22;3324;50.796;7.228;2023-05-20T15:38:25;19.20;99.90
6581;DHT22;3324;50.796;7.228;2023-05-20T15:40:51;19.20;99.90
6581;DHT22;3324;50.796;7.228;2023-05-20T15:43:17;19.30;99.90
6581;DHT22;3324;50.796;7.228;2023-05-20T15:45:44;19.30;99.90
6581;DHT22;3324;50.796;7.228;2023-05-20T15:48:10;19.20;99.90
6581;DHT22;3324;50.796;7.228;2023-05-20T15:50:37;19.30;99.90
6581;DHT22;3324;50.796;7.228;2023-05-20T15:53:05;19.30;99.90
6581;DHT22;3324;50.796;7.228;2023-05-20T15:55:31;19.30;99.90
6581;DHT22;3324;50.796;7.228;2023-05-20T15:57:56;19.30;99.90
6581;DHT22;3324;50.796;7.228;2023-05-20T16:00:22;19.20;99.90
6581;DHT22;3324;50.796;7.228;2023-05-20T16:02:48;19.10;99.90
6581;DHT22;3324;50.796;7.228;2023-05-20T16:05:14;19.10;99.90
6581;DHT22;3324;50.796;7.228;2023-05-20T16:07:41;19.10;99.90
6581;DHT22;3324;50.796;7.228;2023-05-20T16:10:07;19.10;99.90
6581;DHT22;3324;50.796;7.228;2023-05-20T16:12:33;19.10;99.90